Flight Track Log - Related Links

Times and Time Zones

All times are in EDT time to prevent confusion due to time zone crossing. See the AMF1937 flight status page for this flight to view local times or setup timezone preferences in your user account.

Time Position Orientation Groundspeed Altitude Reporting Facility
EDT Latitude Longitude Course Direction KTS MPH feet Rate Location/Type
Fri 10:16:50 PM 34.0500 -117.6500 270° West 147 169 3,400  Level Southern California TRACON
Fri 10:17:50 PM 34.0500 -117.7000 270° West 160 184 4,900 1,350 Climbing Southern California TRACON
Fri 10:18:50 PM 34.0500 -117.7667 270° West 175 201 6,100 1,421 Climbing Southern California TRACON
Fri 10:19:44 PM 34.0667 -117.8167 292° West 176 203 7,600 950 Climbing Southern California TRACON
Fri 10:20:50 PM 34.0833 -117.8833 287° West 204 235 8,000 190 Climbing Southern California TRACON
Fri 10:21:50 PM 34.1000 -117.9500 287° West 196 226 8,000  Level Southern California TRACON
Fri 10:22:44 PM 34.1167 -118.0000 292° West 194 223 8,000  Level Southern California TRACON
Fri 10:23:19 PM 34.1333 -118.0372 298° West 196 226 8,000 -495 Level Los Angeles Center
Fri 10:24:21 PM 34.1425 -118.1047 279° West 199 229 7,200 -829 Descending Los Angeles Center
Fri 10:25:22 PM 34.1483 -118.1783 275° West 210 242 6,300 -585 Descending Los Angeles Center
Fri 10:26:24 PM 34.1528 -118.2461 275° West 210 242 6,000 -145 Descending Los Angeles Center
Fri 10:27:26 PM 34.1500 -118.3078 267° West 198 228 6,000  Level Los Angeles Center
Fri 10:28:28 PM 34.1475 -118.3683 267° West 189 217 6,000  Level Los Angeles Center
Fri 10:28:46 PM 34.1500 -118.4000 275° West 192 221 6,000  Level Southern California TRACON
Fri 10:29:45 PM 34.1500 -118.4500 270° West 173 199 6,000 -48 Level Southern California TRACON
Fri 10:30:51 PM 34.1500 -118.5167 270° West 179 206 5,900 -750 Descending Southern California TRACON
Fri 10:31:45 PM 34.1500 -118.5833 270° West 195 224 4,500 -1,250 Descending Southern California TRACON
Fri 10:32:51 PM 34.1667 -118.5833 360° North 209 241 3,400 -694 Descending Southern California TRACON
Fri 10:33:46 PM 34.2000 -118.5333 51° Northeast 196 226 3,100 -209 Descending Southern California TRACON
Fri 10:34:46 PM 34.2000 -118.4833 90° East 183 211 3,000 -400 Descending Southern California TRACON
Fri 10:35:46 PM 34.2000 -118.4167 90° East 148 170 2,300 -700 Descending Southern California TRACON

Login

Don't have an account? Register now (free) for customized features, flight alerts, and more!